Time;durP1;ratioP1;P1;durP2;ratioP2;P2;SDS_P1;SDS_P2;PMS_P1;PMS_P2;Temp;Humidity;BMP_temperature;BMP_pressure;BME280_temperature;BME280_humidity;BME280_pressure;Samples;Min_cycle;Max_cycle;Signal;HPM_P1;HPM_P2
2022/03/22 00:00:41;;;;;;;2.80;1.27;;;23.20;35.90;;;;;;5083890;28;20037;-59
2022/03/22 00:03:08;;;;;;;2.95;1.70;;;23.20;35.90;;;;;;5069897;28;20044;-59
2022/03/22 00:05:39;;;;;;;2.08;1.38;;;23.20;36.00;;;;;;5081271;28;20647;-60
2022/03/22 00:08:07;;;;;;;2.70;1.48;;;23.20;36.00;;;;;;5079436;28;20044;-60
2022/03/22 00:10:38;;;;;;;3.63;1.27;;;23.20;36.00;;;;;;5073370;28;20694;-59
2022/03/22 00:13:05;;;;;;;1.85;1.10;;;23.10;36.00;;;;;;5069803;28;20035;-60
2022/03/22 00:15:34;;;;;;;2.08;1.13;;;23.20;36.10;;;;;;5071965;28;20048;-60
2022/03/22 00:18:02;;;;;;;5.07;1.27;;;23.10;36.00;;;;;;5082203;28;20491;-60
2022/03/22 00:20:30;;;;;;;3.30;2.60;;;23.10;36.00;;;;;;5078003;28;20094;-60
2022/03/22 00:22:58;;;;;;;3.70;1.75;;;23.10;36.10;;;;;;5074335;28;20040;-60
2022/03/22 00:25:25;;;;;;;1.27;0.68;;;23.10;36.10;;;;;;5069725;28;20151;-60
2022/03/22 00:27:55;;;;;;;2.80;1.10;;;23.10;36.10;;;;;;5066645;28;20051;-62
2022/03/22 00:30:25;;;;;;;3.42;1.67;;;23.10;36.10;;;;;;5070286;28;20044;-60
2022/03/22 00:32:54;;;;;;;2.03;1.73;;;23.10;36.10;;;;;;5076012;28;20501;-60
2022/03/22 00:35:23;;;;;;;1.35;1.25;;;23.10;36.20;;;;;;5073112;28;20044;-60
2022/03/22 00:37:52;;;;;;;1.50;0.80;;;23.10;36.20;;;;;;5078210;28;20047;-59
2022/03/22 00:40:19;;;;;;;3.85;0.82;;;23.00;36.10;;;;;;5073702;28;20051;-60
2022/03/22 00:42:48;;;;;;;2.38;1.15;;;23.00;36.20;;;;;;5073572;28;20033;-60
2022/03/22 00:45:18;;;;;;;2.22;0.70;;;23.00;36.20;;;;;;5078995;28;20488;-59
2022/03/22 00:47:47;;;;;;;3.00;1.30;;;23.00;36.20;;;;;;5067269;28;20564;-59
2022/03/22 00:50:16;;;;;;;1.33;0.63;;;23.00;36.20;;;;;;5076241;28;20043;-60
2022/03/22 00:52:44;;;;;;;1.35;1.05;;;23.00;36.20;;;;;;5067106;28;20118;-59
2022/03/22 00:55:13;;;;;;;2.45;0.80;;;23.00;36.20;;;;;;5071179;28;20101;-59
2022/03/22 00:57:41;;;;;;;0.77;0.75;;;22.90;36.20;;;;;;5069864;28;20048;-59
2022/03/22 01:00:11;;;;;;;1.38;0.80;;;22.90;36.20;;;;;;5070911;28;20589;-59
2022/03/22 01:02:43;;;;;;;1.38;1.15;;;22.90;36.20;;;;;;5074986;28;20600;-59
2022/03/22 01:05:13;;;;;;;2.75;0.90;;;22.90;36.20;;;;;;5074625;28;20098;-59
2022/03/22 01:07:41;;;;;;;1.85;1.13;;;22.90;36.30;;;;;;5069885;28;20072;-57
2022/03/22 01:10:11;;;;;;;0.95;0.90;;;22.90;36.30;;;;;;5070901;28;20051;-59
2022/03/22 01:12:39;;;;;;;1.13;0.95;;;22.90;36.30;;;;;;5073128;28;20127;-59
2022/03/22 01:15:10;;;;;;;1.13;0.70;;;22.90;36.30;;;;;;5084783;28;20288;-59
2022/03/22 01:17:37;;;;;;;2.70;0.80;;;22.90;36.30;;;;;;5076582;28;20494;-59
2022/03/22 01:20:09;;;;;;;0.75;0.70;;;22.90;36.40;;;;;;5076898;28;20064;-59
2022/03/22 01:22:38;;;;;;;2.78;0.88;;;22.90;36.30;;;;;;5076019;28;20073;-59
2022/03/22 01:25:08;;;;;;;1.15;0.82;;;22.80;36.30;;;;;;5074794;28;20143;-59
2022/03/22 01:27:37;;;;;;;1.67;1.00;;;22.80;36.30;;;;;;5068786;28;20083;-59
2022/03/22 01:30:05;;;;;;;1.95;1.30;;;22.80;36.30;;;;;;5074339;28;20048;-59
2022/03/22 01:32:33;;;;;;;0.90;0.80;;;22.80;36.40;;;;;;5080104;28;20040;-60
2022/03/22 01:35:00;;;;;;;1.20;1.10;;;22.80;36.30;;;;;;5076837;28;20039;-59
2022/03/22 01:37:28;;;;;;;1.42;1.02;;;22.80;36.40;;;;;;5073776;28;20040;-59
2022/03/22 01:39:55;;;;;;;1.42;1.17;;;22.80;36.40;;;;;;5068904;28;20044;-59
2022/03/22 01:42:23;;;;;;;1.10;0.95;;;22.80;36.40;;;;;;5082616;28;20048;-60
2022/03/22 01:44:51;;;;;;;1.67;1.05;;;22.80;36.40;;;;;;5080329;28;20109;-59
2022/03/22 01:47:23;;;;;;;0.70;0.70;;;22.80;36.40;;;;;;5077231;28;20068;-59
2022/03/22 01:49:51;;;;;;;1.05;1.02;;;22.70;36.40;;;;;;5068615;28;20044;-59
2022/03/22 01:52:20;;;;;;;1.25;0.80;;;22.70;36.40;;;;;;5069592;28;20744;-59
2022/03/22 01:54:51;;;;;;;2.58;1.70;;;22.70;36.40;;;;;;5074500;28;20040;-59
2022/03/22 01:57:19;;;;;;;2.80;1.08;;;22.70;36.40;;;;;;5073840;28;20036;-59
2022/03/22 01:59:47;;;;;;;1.52;0.85;;;22.70;36.40;;;;;;5087390;28;20082;-59
2022/03/22 02:08:10;;;;;;;1.48;0.90;;;22.60;36.50;;;;;;5075541;28;20533;-59
2022/03/22 02:10:40;;;;;;;1.35;0.82;;;22.60;36.50;;;;;;5084217;28;20047;-59
2022/03/22 02:13:07;;;;;;;0.85;0.85;;;22.60;36.50;;;;;;5074451;28;20668;-59
2022/03/22 02:15:35;;;;;;;1.00;0.93;;;22.60;36.50;;;;;;5081968;28;20043;-59
2022/03/22 02:18:02;;;;;;;1.30;0.93;;;22.60;36.50;;;;;;5073846;28;20060;-59
2022/03/22 02:20:31;;;;;;;0.77;0.77;;;22.60;36.50;;;;;;5073555;28;20044;-58
2022/03/22 02:23:02;;;;;;;0.63;0.63;;;22.60;36.50;;;;;;5074746;28;20048;-59
2022/03/22 02:25:31;;;;;;;1.20;0.73;;;22.60;36.50;;;;;;5077344;28;20040;-58
2022/03/22 02:27:58;;;;;;;1.25;1.15;;;22.60;36.50;;;;;;5067615;28;20044;-59
2022/03/22 02:30:26;;;;;;;0.70;0.55;;;22.60;36.50;;;;;;5070963;28;20504;-59
2022/03/22 02:32:57;;;;;;;0.85;0.52;;;22.60;36.50;;;;;;5069291;28;20436;-59
2022/03/22 02:35:25;;;;;;;2.28;0.70;;;22.60;36.50;;;;;;5085443;28;20063;-59
2022/03/22 02:37:53;;;;;;;0.75;0.70;;;22.60;36.50;;;;;;5072239;28;20037;-59
2022/03/22 02:40:20;;;;;;;1.98;0.90;;;22.60;36.50;;;;;;5071338;28;20032;-59
2022/03/22 02:42:51;;;;;;;0.90;0.88;;;22.60;36.50;;;;;;5071158;28;20039;-59
2022/03/22 02:45:19;;;;;;;2.17;0.68;;;22.50;36.50;;;;;;5070663;28;20426;-59
2022/03/22 02:47:47;;;;;;;1.52;0.80;;;22.50;36.50;;;;;;5078446;28;20032;-59
2022/03/22 02:50:15;;;;;;;0.77;0.77;;;22.50;36.50;;;;;;5070504;28;20123;-59
2022/03/22 02:52:45;;;;;;;1.48;1.02;;;22.50;36.60;;;;;;5069201;28;20113;-59
2022/03/22 02:55:13;;;;;;;1.10;0.65;;;22.50;36.50;;;;;;5070033;28;20496;-59
2022/03/22 02:57:42;;;;;;;0.77;0.77;;;22.50;36.50;;;;;;5067549;28;20055;-57
2022/03/22 03:00:14;;;;;;;0.77;0.77;;;22.50;36.50;;;;;;5071544;28;20040;-59
2022/03/22 03:02:43;;;;;;;0.80;0.80;;;22.50;36.60;;;;;;5072068;28;20051;-59
2022/03/22 03:05:10;;;;;;;0.60;0.50;;;22.50;36.60;;;;;;5079292;28;20519;-59
2022/03/22 03:07:38;;;;;;;0.88;0.88;;;22.50;36.50;;;;;;5073167;28;20082;-60
2022/03/22 03:10:06;;;;;;;1.13;0.80;;;22.50;36.60;;;;;;5069885;28;20059;-60
2022/03/22 03:12:34;;;;;;;0.68;0.43;;;22.50;36.50;;;;;;5075001;28;20036;-60
2022/03/22 03:15:01;;;;;;;0.90;0.55;;;22.40;36.50;;;;;;5082988;28;20059;-59
2022/03/22 03:17:30;;;;;;;0.95;0.82;;;22.50;36.60;;;;;;5074765;28;20451;-59
2022/03/22 03:19:57;;;;;;;1.35;1.25;;;22.40;36.60;;;;;;5075599;28;20118;-59
2022/03/22 03:22:25;;;;;;;2.20;0.82;;;22.40;36.50;;;;;;5081211;28;20637;-64
2022/03/22 03:24:52;;;;;;;1.00;1.00;;;22.40;36.50;;;;;;5077511;28;20076;-59
2022/03/22 03:27:20;;;;;;;1.27;1.17;;;22.40;37.10;;;;;;5067867;28;20519;-59
2022/03/22 03:29:48;;;;;;;0.73;0.73;;;22.40;36.50;;;;;;5076152;28;20075;-59
2022/03/22 03:32:15;;;;;;;4.57;0.77;;;22.40;36.60;;;;;;5071236;28;20037;-58
2022/03/22 03:34:44;;;;;;;1.67;0.73;;;22.40;36.60;;;;;;5074968;28;20051;-59
2022/03/22 03:37:12;;;;;;;1.17;0.40;;;22.40;36.60;;;;;;5075159;28;20035;-59
2022/03/22 03:39:40;;;;;;;1.42;0.47;;;22.40;37.20;;;;;;5081416;28;20049;-59
2022/03/22 03:42:07;;;;;;;0.85;0.57;;;22.40;36.60;;;;;;5072927;28;20067;-58
2022/03/22 03:47:22;;;;;;;;;;;22.30;36.50;;;;;;5078549;28;20060;-59
2022/03/22 03:49:53;;;;;;;0.75;0.63;;;22.30;36.50;;;;;;5071048;28;20502;-59
2022/03/22 03:52:23;;;;;;;1.23;1.20;;;22.20;36.60;;;;;;5072422;28;20507;-58
2022/03/22 03:54:52;;;;;;;2.15;1.42;;;22.30;36.70;;;;;;5082409;28;20032;-59
2022/03/22 03:57:20;;;;;;;1.52;1.42;;;22.30;36.60;;;;;;5074420;28;20438;-59
2022/03/22 03:59:47;;;;;;;3.60;1.80;;;22.20;36.60;;;;;;5074028;28;20060;-59
2022/03/22 04:02:14;;;;;;;1.13;0.85;;;22.30;36.60;;;;;;5082127;28;20040;-59
2022/03/22 04:04:42;;;;;;;1.05;1.05;;;22.20;36.50;;;;;;5070482;28;20117;-59
2022/03/22 04:07:13;;;;;;;0.47;0.38;;;22.30;36.60;;;;;;5067767;28;20037;-59
2022/03/22 04:09:41;;;;;;;1.02;0.80;;;22.20;36.60;;;;;;5071504;28;20049;-57
2022/03/22 04:12:08;;;;;;;0.80;0.80;;;22.20;37.20;;;;;;5071934;28;20036;-59
2022/03/22 04:14:36;;;;;;;0.88;0.80;;;22.20;36.50;;;;;;5069910;28;20857;-59
2022/03/22 04:17:03;;;;;;;1.20;0.75;;;22.20;36.60;;;;;;5073572;28;20476;-59
2022/03/22 04:19:31;;;;;;;1.10;0.98;;;22.20;36.60;;;;;;5075358;28;20530;-59
2022/03/22 04:21:58;;;;;;;1.20;0.93;;;22.20;36.60;;;;;;5073104;28;20032;-59
2022/03/22 04:24:26;;;;;;;1.80;1.13;;;22.20;36.60;;;;;;5066618;28;20171;-59
2022/03/22 04:26:54;;;;;;;1.10;1.00;;;22.20;36.50;;;;;;5069914;28;20041;-59
2022/03/22 04:34:56;;;;;;;1.38;0.90;;;22.20;36.60;;;;;;5009279;28;20045;-59
2022/03/22 04:37:24;;;;;;;0.82;0.82;;;22.10;36.50;;;;;;5010840;28;20041;-60
2022/03/22 04:39:53;;;;;;;1.23;0.75;;;22.20;36.60;;;;;;5009650;28;20506;-61
2022/03/22 04:42:20;;;;;;;0.98;0.98;;;22.10;36.50;;;;;;5013136;28;20157;-59
2022/03/22 04:44:47;;;;;;;3.13;1.40;;;22.10;36.50;;;;;;4992690;28;20601;-59
2022/03/22 04:47:14;;;;;;;1.25;0.77;;;22.10;36.60;;;;;;4994675;28;20050;-61
2022/03/22 04:49:41;;;;;;;1.88;0.73;;;22.10;36.60;;;;;;5011788;28;20107;-59
2022/03/22 04:57:40;;;;;;;1.63;0.75;;;22.10;36.60;;;;;;5007136;28;20052;-60
2022/03/22 05:00:09;;;;;;;1.88;1.77;;;22.10;36.60;;;;;;5010169;28;20108;-60
2022/03/22 05:02:36;;;;;;;1.02;0.55;;;22.00;36.60;;;;;;5012235;28;20073;-60
2022/03/22 05:05:04;;;;;;;0.93;0.85;;;22.00;36.60;;;;;;5007995;28;20056;-59
2022/03/22 05:07:31;;;;;;;1.33;1.23;;;22.00;36.60;;;;;;5017062;28;20065;-59
2022/03/22 05:10:00;;;;;;;1.75;1.13;;;22.00;36.60;;;;;;5070953;28;20143;-60
2022/03/22 05:12:27;;;;;;;0.93;0.93;;;22.00;36.50;;;;;;5078742;28;20059;-59
2022/03/22 05:14:55;;;;;;;2.55;1.20;;;22.00;36.60;;;;;;5074886;28;20044;-59
2022/03/22 05:17:23;;;;;;;5.03;1.02;;;22.00;36.60;;;;;;5076656;28;20049;-60
2022/03/22 05:19:52;;;;;;;0.98;0.85;;;22.00;36.60;;;;;;5078425;28;20513;-59
2022/03/22 05:22:19;;;;;;;0.95;0.90;;;22.00;37.20;;;;;;5075548;28;20131;-60
2022/03/22 05:24:47;;;;;;;2.72;1.52;;;22.00;36.60;;;;;;5076323;28;20040;-59
2022/03/22 05:27:18;;;;;;;0.95;0.77;;;22.00;36.60;;;;;;5072966;28;20100;-60
2022/03/22 05:29:45;;;;;;;1.35;1.08;;;22.00;36.60;;;;;;5076238;28;20439;-59
2022/03/22 05:32:13;;;;;;;0.88;0.88;;;21.90;36.50;;;;;;5075935;28;20102;-61
2022/03/22 05:34:41;;;;;;;0.85;0.82;;;21.90;36.50;;;;;;5074247;28;20121;-59
2022/03/22 05:37:08;;;;;;;1.10;1.00;;;21.90;36.50;;;;;;5072918;28;20059;-59
2022/03/22 05:39:36;;;;;;;1.60;0.90;;;21.90;36.50;;;;;;5083939;28;20036;-59
2022/03/22 05:42:04;;;;;;;1.27;1.20;;;21.90;36.50;;;;;;5078205;28;20046;-59
2022/03/22 05:44:35;;;;;;;1.38;1.27;;;21.90;36.50;;;;;;5073491;28;20052;-59
2022/03/22 05:47:02;;;;;;;3.55;1.67;;;21.90;36.60;;;;;;5075761;28;20110;-59
2022/03/22 05:49:30;;;;;;;0.93;0.93;;;21.90;36.60;;;;;;5082458;28;20048;-60
2022/03/22 05:51:57;;;;;;;1.75;1.63;;;21.90;36.60;;;;;;5071506;28;20036;-58
2022/03/22 05:54:24;;;;;;;1.85;1.17;;;21.90;36.60;;;;;;5075655;28;20051;-58
2022/03/22 05:56:53;;;;;;;1.58;0.70;;;21.90;36.60;;;;;;5093750;28;20213;-59
2022/03/22 05:59:20;;;;;;;1.15;1.15;;;21.90;36.60;;;;;;5079678;28;20512;-59
2022/03/22 06:01:48;;;;;;;1.08;0.98;;;21.90;36.60;;;;;;5077572;28;20035;-58
2022/03/22 06:04:16;;;;;;;1.52;0.90;;;21.80;36.60;;;;;;5082194;28;20039;-59
2022/03/22 06:06:43;;;;;;;1.58;1.48;;;21.80;36.60;;;;;;5073198;28;20044;-59
2022/03/22 06:09:11;;;;;;;1.20;1.10;;;21.80;36.50;;;;;;5083598;28;20044;-59
2022/03/22 06:11:38;;;;;;;1.50;1.35;;;21.80;36.60;;;;;;5076824;28;20048;-59
2022/03/22 06:14:06;;;;;;;2.60;1.58;;;21.80;36.60;;;;;;5071390;28;20549;-59
2022/03/22 06:16:34;;;;;;;1.05;1.05;;;21.80;37.20;;;;;;5072379;28;20074;-59
2022/03/22 06:19:02;;;;;;;1.30;1.17;;;21.80;36.60;;;;;;5082643;28;20044;-57
2022/03/22 06:21:30;;;;;;;1.50;1.40;;;21.80;36.60;;;;;;5083763;28;20036;-59
2022/03/22 06:23:57;;;;;;;1.52;1.27;;;21.80;36.60;;;;;;5088352;28;20051;-59
2022/03/22 06:26:25;;;;;;;1.98;1.10;;;21.80;36.60;;;;;;5076540;28;20136;-59
2022/03/22 06:28:52;;;;;;;1.77;1.13;;;21.80;36.70;;;;;;5077887;28;20113;-60
2022/03/22 06:31:19;;;;;;;3.28;1.50;;;21.80;36.60;;;;;;5073842;28;20039;-58
2022/03/22 06:33:47;;;;;;;3.22;0.90;;;21.80;36.60;;;;;;5069563;28;20044;-59
2022/03/22 06:36:15;;;;;;;3.42;1.00;;;21.80;36.70;;;;;;5074832;28;20496;-59
2022/03/22 06:38:43;;;;;;;2.65;2.10;;;21.80;36.70;;;;;;5072824;28;20048;-59
2022/03/22 06:41:10;;;;;;;2.65;1.40;;;21.80;36.60;;;;;;5070916;28;20497;-59
2022/03/22 06:43:37;;;;;;;1.38;1.17;;;21.70;36.50;;;;;;5078650;28;20127;-59
2022/03/22 06:46:05;;;;;;;1.60;1.10;;;21.80;36.70;;;;;;5070599;28;20036;-59
2022/03/22 06:48:32;;;;;;;1.67;1.08;;;21.70;36.50;;;;;;5067883;28;20044;-60
2022/03/22 06:51:00;;;;;;;0.98;0.88;;;21.70;36.60;;;;;;5074572;28;20051;-58
2022/03/22 06:53:28;;;;;;;0.80;0.80;;;21.70;36.60;;;;;;5077220;28;20571;-59
2022/03/22 06:55:57;;;;;;;1.30;1.20;;;21.80;36.70;;;;;;5073819;28;20036;-59
2022/03/22 06:58:26;;;;;;;1.77;1.63;;;21.70;36.50;;;;;;5071285;28;20098;-59
2022/03/22 07:00:55;;;;;;;3.22;1.42;;;21.70;36.50;;;;;;5079852;28;20139;-59
2022/03/22 07:03:22;;;;;;;1.80;1.70;;;21.70;36.70;;;;;;5067977;28;20056;-59
2022/03/22 07:05:49;;;;;;;1.92;1.02;;;21.70;36.60;;;;;;5081646;28;20132;-59
2022/03/22 07:08:16;;;;;;;2.85;1.52;;;21.70;36.50;;;;;;5072505;28;20139;-59
2022/03/22 07:11:47;;;;;;;1.23;1.13;;;21.70;36.50;;;;;;5073072;28;20041;-59
2022/03/22 07:13:33;;;;;;;1.60;0.90;;;21.80;36.60;;;;;;5073837;28;20374;-61
2022/03/22 07:16:01;;;;;;;1.33;1.25;;;21.70;36.50;;;;;;5069273;28;20067;-60
2022/03/22 07:18:28;;;;;;;3.67;1.83;;;21.70;36.50;;;;;;5071578;28;20056;-59
2022/03/22 07:20:56;;;;;;;1.33;1.20;;;21.80;36.50;;;;;;5086926;28;20051;-60
2022/03/22 07:23:23;;;;;;;1.50;1.27;;;21.80;36.50;;;;;;5072710;28;20102;-60
2022/03/22 07:25:51;;;;;;;1.48;0.88;;;21.80;36.50;;;;;;5073093;28;20044;-59
2022/03/22 07:28:19;;;;;;;3.17;1.58;;;21.80;36.50;;;;;;5073004;28;20113;-60
2022/03/22 07:30:46;;;;;;;1.35;1.23;;;21.80;36.50;;;;;;5072754;28;20043;-59
2022/03/22 07:33:13;;;;;;;1.80;1.27;;;21.80;36.50;;;;;;5077704;28;20109;-60
2022/03/22 07:35:42;;;;;;;1.55;1.40;;;21.80;36.50;;;;;;5072969;28;20048;-59
2022/03/22 07:38:09;;;;;;;1.83;1.55;;;21.80;36.40;;;;;;5071973;28;20048;-58
2022/03/22 07:40:36;;;;;;;1.98;1.23;;;21.80;36.40;;;;;;5072305;28;20037;-59
2022/03/22 07:43:05;;;;;;;1.38;1.35;;;21.80;36.40;;;;;;5074060;28;20113;-59
2022/03/22 07:45:33;;;;;;;1.70;1.60;;;21.80;36.30;;;;;;5071852;28;20052;-60
2022/03/22 07:48:00;;;;;;;2.10;2.00;;;21.80;36.30;;;;;;5086701;28;20047;-60
2022/03/22 07:53:08;;;;;;;1.65;1.17;;;21.80;36.30;;;;;;5005738;28;20165;-59
2022/03/22 07:55:37;;;;;;;2.08;1.95;;;21.80;36.30;;;;;;5005526;28;20050;-60
2022/03/22 07:58:07;;;;;;;1.30;1.30;;;21.80;36.90;;;;;;4994915;28;20144;-60
2022/03/22 08:00:37;;;;;;;1.90;1.48;;;21.90;36.30;;;;;;5011803;28;20129;-59
2022/03/22 08:03:08;;;;;;;1.90;1.80;;;21.90;36.30;;;;;;5005438;28;20156;-59
2022/03/22 08:05:36;;;;;;;1.23;1.05;;;21.90;36.30;;;;;;4997377;28;20149;-60
2022/03/22 08:08:04;;;;;;;1.50;1.40;;;21.90;36.20;;;;;;5007218;28;20053;-60
2022/03/22 08:10:32;;;;;;;2.47;2.22;;;21.90;36.20;;;;;;5009503;28;20132;-59
2022/03/22 08:13:00;;;;;;;1.35;1.35;;;21.90;36.10;;;;;;5013094;28;20545;-60
2022/03/22 08:15:30;;;;;;;2.15;1.65;;;21.90;36.10;;;;;;5003057;28;20073;-60
2022/03/22 08:17:57;;;;;;;1.27;1.27;;;21.90;36.10;;;;;;5009039;28;20142;-60
2022/03/22 08:20:27;;;;;;;1.90;1.80;;;21.90;36.00;;;;;;5014290;28;20156;-60
2022/03/22 08:22:59;;;;;;;1.58;1.48;;;21.90;36.00;;;;;;5011562;28;20046;-60
2022/03/22 08:25:28;;;;;;;1.55;1.45;;;21.90;36.00;;;;;;5011426;28;20065;-60
2022/03/22 08:27:57;;;;;;;1.92;1.80;;;22.00;36.10;;;;;;5007859;28;20092;-60
2022/03/22 08:30:25;;;;;;;4.10;2.08;;;22.00;36.00;;;;;;5037647;28;20041;-60
2022/03/22 08:32:56;;;;;;;2.05;1.38;;;22.00;36.00;;;;;;5077457;28;20070;-61
2022/03/22 08:35:24;;;;;;;1.73;1.63;;;22.00;35.90;;;;;;5080079;28;20044;-59
2022/03/22 08:37:52;;;;;;;3.25;2.00;;;22.00;36.00;;;;;;5076637;28;20148;-60
2022/03/22 08:40:20;;;;;;;1.55;1.25;;;22.00;35.90;;;;;;5071138;28;20041;-59
2022/03/22 08:42:48;;;;;;;2.00;1.90;;;22.00;35.80;;;;;;5073770;28;20032;-59
2022/03/22 08:45:17;;;;;;;1.67;1.50;;;22.10;35.80;;;;;;5079145;28;20067;-60
2022/03/22 08:47:48;;;;;;;1.70;1.60;;;22.10;35.80;;;;;;5075229;28;20538;-60
2022/03/22 08:50:19;;;;;;;2.03;1.52;;;22.10;35.70;;;;;;5076249;28;20062;-60
2022/03/22 08:52:47;;;;;;;4.43;1.95;;;22.10;35.70;;;;;;5078645;28;20821;-60
2022/03/22 08:55:17;;;;;;;1.40;1.30;;;22.10;35.70;;;;;;5077492;28;20067;-59
2022/03/22 08:57:46;;;;;;;1.70;1.58;;;22.10;35.60;;;;;;5076991;28;20046;-59
2022/03/22 09:00:15;;;;;;;1.23;1.05;;;22.20;35.60;;;;;;5074653;28;20610;-60
2022/03/22 09:02:44;;;;;;;2.13;1.42;;;22.20;35.60;;;;;;5073529;28;20071;-60
2022/03/22 09:08:01;;;;;;;0.93;0.93;;;22.20;35.40;;;;;;5082887;28;20044;-59
2022/03/22 09:10:29;;;;;;;1.50;1.38;;;22.20;35.40;;;;;;5071410;28;20512;-58
2022/03/22 09:12:58;;;;;;;1.15;1.15;;;22.20;35.30;;;;;;5075596;28;20067;-59
2022/03/22 09:15:28;;;;;;;1.88;0.80;;;22.30;35.30;;;;;;5072514;28;20063;-59
2022/03/22 09:17:57;;;;;;;2.30;1.55;;;22.30;35.20;;;;;;5075228;28;20064;-59
2022/03/22 09:20:25;;;;;;;2.15;1.83;;;22.30;34.80;;;;;;5073203;28;20488;-59
2022/03/22 09:22:53;;;;;;;2.58;1.55;;;22.30;34.90;;;;;;5072487;28;20055;-60
2022/03/22 09:25:22;;;;;;;2.47;2.28;;;22.30;34.80;;;;;;5073802;28;20047;-59
2022/03/22 09:27:50;;;;;;;1.92;1.10;;;22.30;34.80;;;;;;5073615;28;20067;-59
2022/03/22 09:30:18;;;;;;;2.75;1.48;;;22.40;34.80;;;;;;5082498;28;20047;-59
2022/03/22 09:32:46;;;;;;;3.72;2.40;;;22.40;34.70;;;;;;5072622;28;21028;-60
2022/03/22 09:35:17;;;;;;;1.52;1.08;;;22.40;34.60;;;;;;5079825;28;20331;-60
2022/03/22 09:37:45;;;;;;;4.30;1.58;;;22.50;34.50;;;;;;5068746;28;20055;-59
2022/03/22 09:40:14;;;;;;;1.52;1.48;;;22.50;34.60;;;;;;5068095;28;20090;-59
2022/03/22 09:42:45;;;;;;;2.63;1.63;;;22.50;34.50;;;;;;5076847;28;20064;-59
2022/03/22 09:45:15;;;;;;;2.83;1.23;;;22.50;34.40;;;;;;5084990;28;20136;-60
2022/03/22 09:47:44;;;;;;;3.10;1.17;;;22.50;34.50;;;;;;5071760;28;20110;-59
2022/03/22 09:50:13;;;;;;;2.85;1.85;;;22.60;34.50;;;;;;5075371;28;20055;-59
2022/03/22 09:52:40;;;;;;;1.60;1.08;;;22.60;34.30;;;;;;5078097;28;20047;-59
2022/03/22 09:55:10;;;;;;;2.35;1.70;;;22.60;34.20;;;;;;5086021;28;20040;-60
2022/03/22 09:57:38;;;;;;;1.77;1.67;;;22.60;34.10;;;;;;5069109;28;20040;-59
2022/03/22 10:00:10;;;;;;;1.73;1.63;;;22.60;34.00;;;;;;5071529;28;20032;-59
2022/03/22 10:02:40;;;;;;;3.25;1.20;;;22.60;33.90;;;;;;5087835;28;20048;-59
2022/03/22 10:05:20;;;;;;;2.55;1.70;;;22.70;33.90;;;;;;5083056;28;20135;-60
2022/03/22 10:07:58;;;;;;;2.38;2.08;;;22.70;33.90;;;;;;5079161;28;20041;-59
2022/03/22 10:10:26;;;;;;;3.65;2.35;;;22.80;33.90;;;;;;5071565;28;20166;-59
2022/03/22 10:12:58;;;;;;;5.25;2.15;;;22.80;33.90;;;;;;5076273;28;20046;-60
2022/03/22 10:15:32;;;;;;;2.53;1.55;;;22.80;33.80;;;;;;5068004;28;20042;-59
2022/03/22 10:18:05;;;;;;;2.15;1.90;;;22.80;33.70;;;;;;5072542;28;20041;-59
2022/03/22 10:20:34;;;;;;;3.53;2.30;;;22.80;33.70;;;;;;5069756;28;20047;-59
2022/03/22 10:23:03;;;;;;;10.07;1.95;;;22.80;33.60;;;;;;5069569;28;20086;-58
2022/03/22 10:25:32;;;;;;;3.92;2.30;;;22.90;33.60;;;;;;5071602;28;20040;-60
2022/03/22 10:28:02;;;;;;;5.30;1.85;;;22.90;33.50;;;;;;5079807;28;20122;-59
2022/03/22 10:30:31;;;;;;;3.92;2.55;;;22.90;33.40;;;;;;5083122;28;20044;-60
2022/03/22 10:32:58;;;;;;;3.95;1.77;;;23.00;33.40;;;;;;5081423;28;20048;-60
2022/03/22 10:35:27;;;;;;;6.75;1.85;;;23.00;33.30;;;;;;5078263;28;20523;-60
2022/03/22 10:37:57;;;;;;;5.05;3.10;;;23.00;33.20;;;;;;5073933;28;20114;-60
2022/03/22 10:40:27;;;;;;;3.83;2.13;;;23.10;33.10;;;;;;5071399;28;20524;-59
2022/03/22 10:42:58;;;;;;;3.17;1.73;;;23.10;33.10;;;;;;5078047;28;20044;-59
2022/03/22 10:45:27;;;;;;;2.67;1.92;;;23.10;33.00;;;;;;5065091;28;20052;-59
2022/03/22 10:47:57;;;;;;;4.18;2.22;;;23.20;33.00;;;;;;5075520;28;20040;-60
2022/03/22 10:50:25;;;;;;;5.30;1.85;;;23.20;32.90;;;;;;5072022;28;20051;-59
2022/03/22 10:52:55;;;;;;;4.80;2.08;;;23.30;32.90;;;;;;5073839;28;20044;-60
2022/03/22 10:55:24;;;;;;;3.65;2.08;;;23.30;32.80;;;;;;5069891;28;20047;-59
2022/03/22 10:57:54;;;;;;;3.72;2.50;;;23.30;32.70;;;;;;5072970;28;20048;-59
2022/03/22 11:00:22;;;;;;;4.78;3.13;;;23.30;32.40;;;;;;5074980;28;20501;-58
2022/03/22 11:02:52;;;;;;;6.10;3.28;;;23.40;32.30;;;;;;5075545;28;20098;-59
2022/03/22 11:05:22;;;;;;;3.97;3.28;;;23.40;32.10;;;;;;5071573;28;20144;-60
2022/03/22 11:07:52;;;;;;;6.43;2.47;;;23.50;32.10;;;;;;5079038;28;20051;-59
2022/03/22 11:10:25;;;;;;;5.97;2.95;;;23.50;32.00;;;;;;5068417;28;20047;-59
2022/03/22 11:12:52;;;;;;;5.55;3.15;;;23.60;32.00;;;;;;5072525;28;20056;-59
2022/03/22 11:15:21;;;;;;;5.43;3.05;;;23.60;31.90;;;;;;5073165;28;20476;-60
2022/03/22 11:17:51;;;;;;;4.32;2.50;;;23.60;31.80;;;;;;5078834;28;20048;-59
2022/03/22 11:20:22;;;;;;;4.97;2.78;;;23.70;31.80;;;;;;5075829;28;20526;-61
2022/03/22 11:22:54;;;;;;;4.35;3.03;;;23.70;31.70;;;;;;5082255;28;20056;-60
2022/03/22 11:25:30;;;;;;;3.88;2.20;;;23.80;31.70;;;;;;5073890;28;20040;-60
2022/03/22 11:28:00;;;;;;;4.35;2.90;;;23.80;31.80;;;;;;5070809;28;20616;-59
2022/03/22 11:30:29;;;;;;;6.90;4.13;;;23.80;31.70;;;;;;5084280;28;20068;-59
2022/03/22 11:35:54;;;;;;;10.43;4.63;;;24.00;31.80;;;;;;5086848;28;20059;-59
2022/03/22 11:38:41;;;;;;;8.65;3.45;;;24.00;31.80;;;;;;5069266;28;20044;-59
2022/03/22 11:44:15;;;;;;;8.30;3.83;;;24.10;31.70;;;;;;5071418;28;20074;-60
2022/03/22 11:46:44;;;;;;;7.90;4.13;;;24.10;31.70;;;;;;5067670;28;20040;-60
2022/03/22 11:49:16;;;;;;;7.18;3.72;;;24.20;31.70;;;;;;5073915;28;20044;-59
2022/03/22 11:51:51;;;;;;;7.82;3.50;;;24.30;32.30;;;;;;5072340;28;20092;-59
2022/03/22 11:54:19;;;;;;;7.93;3.30;;;24.30;31.60;;;;;;5082785;28;20044;-60
2022/03/22 11:56:48;;;;;;;5.82;3.10;;;24.30;31.50;;;;;;5077066;28;20155;-59
2022/03/22 11:59:17;;;;;;;7.15;4.05;;;24.40;31.40;;;;;;5075240;28;20040;-59
2022/03/22 12:02:01;;;;;;;5.05;3.38;;;24.50;31.40;;;;;;5077621;28;20032;-58
2022/03/22 12:04:40;;;;;;;8.32;4.07;;;24.50;31.30;;;;;;5066686;28;20160;-59
2022/03/22 12:07:12;;;;;;;8.75;4.07;;;24.60;31.40;;;;;;5069433;28;20124;-60
2022/03/22 12:09:42;;;;;;;4.43;3.70;;;24.60;31.30;;;;;;5066069;28;20064;-60
2022/03/22 12:12:11;;;;;;;8.43;3.42;;;24.60;31.30;;;;;;5072577;28;20450;-60
2022/03/22 12:14:39;;;;;;;5.60;3.45;;;24.70;31.20;;;;;;5076324;28;20047;-60
2022/03/22 12:17:07;;;;;;;7.00;4.30;;;24.70;31.10;;;;;;5080593;28;20589;-60
2022/03/22 12:19:35;;;;;;;6.30;2.95;;;24.70;31.10;;;;;;5079736;28;20071;-58
2022/03/22 12:22:05;;;;;;;4.80;2.78;;;24.80;31.10;;;;;;5071180;28;20044;-61
2022/03/22 12:24:35;;;;;;;6.82;3.33;;;24.90;31.10;;;;;;5070483;28;20110;-59
2022/03/22 12:27:04;;;;;;;8.38;3.08;;;24.90;31.00;;;;;;5067118;28;20040;-57
2022/03/22 12:29:37;;;;;;;4.03;2.55;;;25.00;31.00;;;;;;5070715;28;20049;-60
2022/03/22 12:32:07;;;;;;;4.55;2.78;;;25.00;31.00;;;;;;5074106;28;20050;-59
2022/03/22 12:34:37;;;;;;;4.15;2.38;;;25.10;31.00;;;;;;5077157;28;20060;-59
2022/03/22 12:37:08;;;;;;;6.68;3.10;;;25.10;30.90;;;;;;5069634;28;20044;-59
2022/03/22 12:39:38;;;;;;;7.00;2.78;;;25.20;30.90;;;;;;5068181;28;20048;-63
2022/03/22 12:42:07;;;;;;;6.00;3.35;;;25.20;30.90;;;;;;5069543;28;20048;-60
2022/03/22 12:44:36;;;;;;;4.32;2.22;;;25.30;30.90;;;;;;5069012;28;20098;-60
2022/03/22 12:47:05;;;;;;;4.30;2.35;;;25.30;30.80;;;;;;5070609;28;20040;-58
2022/03/22 12:49:34;;;;;;;2.72;2.22;;;25.30;30.70;;;;;;5072669;28;20116;-59
2022/03/22 12:52:02;;;;;;;3.92;2.88;;;25.40;30.70;;;;;;5071978;28;20040;-60
2022/03/22 12:54:34;;;;;;;3.22;2.15;;;25.40;30.70;;;;;;5070165;28;20145;-60
2022/03/22 12:57:08;;;;;;;4.75;2.08;;;25.50;30.70;;;;;;5080057;28;20059;-58
2022/03/22 12:59:36;;;;;;;4.07;2.78;;;25.60;30.70;;;;;;5081150;28;20626;-59
2022/03/22 13:02:06;;;;;;;2.90;1.67;;;25.60;30.60;;;;;;5078725;28;20064;-59
2022/03/22 13:04:37;;;;;;;3.92;2.83;;;25.60;30.60;;;;;;5074084;28;20069;-59
2022/03/22 13:07:07;;;;;;;6.07;2.53;;;25.70;30.60;;;;;;5065681;28;20037;-59
2022/03/22 13:12:36;;;;;;;4.78;2.28;;;25.80;30.50;;;;;;5006912;28;20056;-59
2022/03/22 13:15:06;;;;;;;6.60;2.08;;;25.90;30.50;;;;;;5007955;28;20056;-59
2022/03/22 13:17:42;;;;;;;2.60;2.05;;;25.90;30.40;;;;;;5014398;28;20042;-59
2022/03/22 13:20:15;;;;;;;3.10;1.52;;;26.00;30.40;;;;;;5010523;28;20206;-60
2022/03/22 13:22:50;;;;;;;2.05;1.55;;;26.10;30.40;;;;;;5010883;28;20506;-59
2022/03/22 13:25:19;;;;;;;2.22;1.83;;;26.10;30.30;;;;;;5007122;28;20072;-59
2022/03/22 13:27:55;;;;;;;2.13;1.88;;;26.20;30.30;;;;;;5020934;28;20046;-60
2022/03/22 13:30:23;;;;;;;4.10;2.40;;;26.20;30.20;;;;;;5006452;28;20108;-59